Etusivu
METAR-TAF:

METAR-TAF

Lentoasemat :

Franjo Tuđmanin lentoasema

Zagreb, Kroatia

Leveyspiiri: 45-44N, Pituuspiiri: 016-04E, korkeus merenpinnasta: 106 m

Tämänhetkinen sää

Tämä raportti tehtiin 10 minuuttia sitten, kello 20.30 UTC
Tuuli 2 kn eri suunnista
Lämpötila 20°C
Kosteus 68%
Ilmanpaine 1018 hPa
Näkyvyys 10 km tai enemmän
ei pilviä alle 1500 m:ssä eikä cumulonimbus-pilviä

METAR: LDZA 152030Z VRB02KT CAVOK 20/14 Q1018 NOSIG

Aika: 22:40 (20:40 UTC)

Sääennuste

Tämä raportti tehtiin 3 tuntia ja 15 minuuttia sitten, kello 17.25 UTC
Ennuste voimassa 15. päivästä klo 18 UTC - 16. päivään klo 18 UTC
Tuuli 7 kn koillisesta
Näkyvyys 10 km tai enemmän
ei pilviä alle 1500 m:ssä eikä cumulonimbus-pilviä
Tulossa
16. päivästä klo 06 UTC - 16. päivään klo 08 UTC
Tuuli 12 kn koillisesta

TAF: LDZA 151725Z 1518/1618 05007KT CAVOK TX30/1613Z TN18/1603Z BECMG 1606/1608 05012KT

Säähavainnot ja -ennusteet yli 4000 lentoasemalta (METAR- ja TAF-raportit).

Käytössä olevat sääasemat on merkitty karttaan keltaisilla ja punaisilla pisteillä.

Aseta hiiri pisteen päälle nähdäksesi sääaseman nimen.

Klikkaa sitten nähdäksesi säähavainnot ja -ennusteet.

Kartan vaihtaminen: klikkaa mustalla rastilla varustettuja vihreitä pisteitä, niin voit zoomata sisään; viivalla varustettua vihreää pistettä, niin voit zoomata ulos tai vihreitä nuolia, niin pääset viereisille kartoille.


METAR-TAF: